createdAt,value
2022-10-12T00:01:57.917Z,99221.28
2022-10-12T00:06:59.826Z,99215.59
2022-10-12T00:12:01.687Z,99231.31
2022-10-12T00:17:04.116Z,99218.28
2022-10-12T00:22:06.157Z,99217.94
2022-10-12T00:27:07.989Z,99214.25
2022-10-12T00:32:10.734Z,99225.25
2022-10-12T00:37:12.535Z,99218.91
2022-10-12T00:42:14.434Z,99214.44
2022-10-12T00:47:16.182Z,99223.84
2022-10-12T00:52:22.308Z,99212.53
2022-10-12T00:57:24.729Z,99208.44
2022-10-12T01:02:29.795Z,99207.81
2022-10-12T01:07:31.693Z,99205.44
2022-10-12T01:12:35.377Z,99202.72
2022-10-12T01:17:56.511Z,99198.41
2022-10-12T01:23:16.945Z,99197.16
2022-10-12T01:28:40.510Z,99197.16
2022-10-12T01:33:59.017Z,99194.28
2022-10-12T01:39:18.245Z,99197.94
2022-10-12T01:44:24.050Z,99194.94
2022-10-12T01:49:30.672Z,99192.38
2022-10-12T01:54:47.353Z,99188.22
2022-10-12T02:00:09.766Z,99185.53
2022-10-12T02:05:26.760Z,99183.44
2022-10-12T02:10:35.838Z,99186.78
2022-10-12T02:15:40.817Z,99182.78
2022-10-12T02:20:42.777Z,99187.88
2022-10-12T02:25:46.458Z,99174.88
2022-10-12T02:31:17.753Z,99179.50
2022-10-12T02:36:34.429Z,99183.63
2022-10-12T02:41:46.668Z,99178.06
2022-10-12T02:46:50.357Z,99188.41
2022-10-12T02:51:53.292Z,99187.75
2022-10-12T02:56:55.305Z,99179.31
2022-10-12T03:01:57.466Z,99181.56
2022-10-12T03:06:59.255Z,99188.72
2022-10-12T03:12:01.042Z,99185.38
2022-10-12T03:17:02.912Z,99178.69
2022-10-12T03:22:04.690Z,99179.16
2022-10-12T03:27:06.475Z,99176.44
2022-10-12T03:32:08.497Z,99181.81
2022-10-12T03:37:10.957Z,99177.41
2022-10-12T03:42:12.741Z,99182.19
2022-10-12T03:47:14.582Z,99174.03
2022-10-12T03:52:16.371Z,99181.69
2022-10-12T03:57:18.161Z,99169.91
2022-10-12T04:02:20.327Z,99180.97
2022-10-12T04:07:22.186Z,99178.56
2022-10-12T04:12:23.989Z,99176.97
2022-10-12T04:17:25.806Z,99177.47
2022-10-12T04:22:27.694Z,99171.91
2022-10-12T04:27:29.534Z,99170.50
2022-10-12T04:32:31.360Z,99162.06
2022-10-12T04:37:33.172Z,99173.84
2022-10-12T04:42:34.953Z,99174.19
2022-10-12T04:47:37.018Z,99169.41
2022-10-12T04:52:39.167Z,99160.53
2022-10-12T04:57:41.346Z,99169.09
2022-10-12T05:02:43.396Z,99165.75
2022-10-12T05:07:45.197Z,99171.59
2022-10-12T05:12:47.045Z,99176.00
2022-10-12T05:17:48.831Z,99176.97
2022-10-12T05:22:50.648Z,99179.69
2022-10-12T05:27:52.694Z,99164.78
2022-10-12T05:32:54.509Z,99165.88
2022-10-12T05:37:56.283Z,99177.13
2022-10-12T05:42:58.122Z,99172.19
2022-10-12T05:47:59.939Z,99172.38
2022-10-12T05:53:01.758Z,99167.00
2022-10-12T05:58:03.564Z,99171.81
2022-10-12T06:03:05.404Z,99173.09
2022-10-12T06:08:08.877Z,99178.06
2022-10-12T06:13:10.643Z,99174.09
2022-10-12T06:18:13.472Z,99180.91
2022-10-12T06:23:15.759Z,99180.22
2022-10-12T06:28:20.329Z,99177.31
2022-10-12T06:33:22.241Z,99185.47
2022-10-12T06:38:24.403Z,99180.59
2022-10-12T06:43:26.195Z,99192.03
2022-10-12T06:48:28.145Z,99193.81
2022-10-12T06:53:32.908Z,99204.63
2022-10-12T06:58:36.613Z,99207.00
2022-10-12T07:03:38.857Z,99201.22
2022-10-12T07:08:42.204Z,99206.22
2022-10-12T07:13:44.169Z,99203.63
2022-10-12T07:18:46.289Z,99208.22
2022-10-12T07:23:48.146Z,99202.16
2022-10-12T07:28:50.018Z,99198.69
2022-10-12T07:33:51.810Z,99193.09
2022-10-12T07:38:53.643Z,99195.03
2022-10-12T07:43:56.742Z,99177.53
2022-10-12T07:48:58.631Z,99189.13
2022-10-12T07:54:00.479Z,99183.56
2022-10-12T07:59:02.328Z,99187.00
2022-10-12T08:04:04.854Z,99186.25
2022-10-12T08:09:06.716Z,99178.97
2022-10-12T08:14:17.601Z,99177.25
2022-10-12T08:19:19.414Z,99189.19
2022-10-12T08:24:21.307Z,99178.03
2022-10-12T08:29:23.098Z,99181.97
2022-10-12T08:34:25.354Z,99179.31
2022-10-12T08:39:27.625Z,99185.84
2022-10-12T08:45:13.864Z,99173.00
2022-10-12T08:50:31.747Z,99169.03
2022-10-12T08:55:40.116Z,99171.50
2022-10-12T09:00:42.590Z,99165.47
2022-10-12T09:05:54.203Z,99160.59
2022-10-12T09:11:16.882Z,99152.13
2022-10-12T09:16:25.959Z,99149.09
2022-10-12T09:21:31.401Z,99145.31
2022-10-12T09:26:38.454Z,99154.75
2022-10-12T09:31:49.234Z,99157.47
2022-10-12T09:36:51.336Z,99154.81
2022-10-12T09:41:53.125Z,99160.75
2022-10-12T09:46:58.994Z,99158.03
2022-10-12T09:52:01.047Z,99154.97
2022-10-12T09:57:03.093Z,99150.28
2022-10-12T10:02:05.472Z,99149.03
2022-10-12T10:07:25.165Z,99141.69
2022-10-12T10:12:27.620Z,99136.25
2022-10-12T10:17:33.764Z,99135.13
2022-10-12T10:22:35.746Z,99140.28
2022-10-12T10:27:39.859Z,99129.28
2022-10-12T10:32:42.809Z,99128.50
2022-10-12T10:37:55.233Z,99126.59
2022-10-12T10:43:20.612Z,99125.81
2022-10-12T10:48:27.995Z,99130.13
2022-10-12T10:53:48.481Z,99112.97
2022-10-12T10:58:58.140Z,99113.34
2022-10-12T11:04:04.926Z,99116.88
2022-10-12T11:09:13.201Z,99107.47
2022-10-12T11:14:19.319Z,99103.53
2022-10-12T11:19:42.308Z,99098.03
2022-10-12T11:25:02.380Z,99092.16
2022-10-12T11:30:13.027Z,99079.13
2022-10-12T11:35:36.342Z,99077.91
2022-10-12T11:41:05.461Z,99077.50
2022-10-12T11:46:13.564Z,99075.06
2022-10-12T11:51:15.349Z,99072.66
2022-10-12T11:56:29.860Z,99067.88
2022-10-12T12:01:47.136Z,99059.06
2022-10-12T12:06:56.102Z,99051.53
2022-10-12T12:12:10.213Z,99036.81
2022-10-12T12:17:28.015Z,99039.91
2022-10-12T12:22:50.764Z,99033.38
2022-10-12T12:28:20.448Z,99025.34
2022-10-12T12:33:22.231Z,99041.16
2022-10-12T12:38:40.768Z,99023.72
2022-10-12T12:43:45.384Z,99020.13
2022-10-12T12:48:47.205Z,99027.88
2022-10-12T12:53:50.859Z,99014.78
2022-10-12T12:59:02.548Z,99015.22
2022-10-12T13:04:10.382Z,99020.25
2022-10-12T13:09:25.499Z,99007.53
2022-10-12T13:15:04.343Z,99002.84
2022-10-12T13:20:33.590Z,99002.13
2022-10-12T13:25:54.856Z,98996.44
2022-10-12T13:30:59.093Z,99004.09
2022-10-12T13:36:08.622Z,98984.13
2022-10-12T13:41:15.146Z,98980.66
2022-10-12T13:46:46.415Z,98972.66
2022-10-12T13:51:50.067Z,98958.28
2022-10-12T13:57:14.925Z,98952.72
2022-10-12T14:02:23.828Z,98951.09
2022-10-12T14:07:35.872Z,98933.41
2022-10-12T14:12:38.225Z,98939.00
2022-10-12T14:17:47.997Z,98931.50
2022-10-12T14:22:50.046Z,98944.59
2022-10-12T14:27:57.138Z,98936.88
2022-10-12T14:33:17.291Z,98934.16
2022-10-12T14:38:39.854Z,98932.69
2022-10-12T14:43:41.955Z,98939.63
2022-10-12T14:48:43.751Z,98940.91
2022-10-12T14:53:45.565Z,98939.44
2022-10-12T14:58:47.367Z,98936.38
2022-10-12T15:03:49.478Z,98926.81
2022-10-12T15:08:52.588Z,98928.31
2022-10-12T15:13:54.378Z,98923.78
2022-10-12T15:18:56.193Z,98913.72
2022-10-12T15:23:57.987Z,98909.50
2022-10-12T15:28:59.978Z,98913.94
2022-10-12T15:34:01.866Z,98922.28
2022-10-12T15:39:03.816Z,98920.34
2022-10-12T15:44:06.476Z,98916.47
2022-10-12T15:49:09.517Z,98919.25
2022-10-12T15:54:11.505Z,98919.69
2022-10-12T15:59:13.305Z,98913.44
2022-10-12T16:04:15.738Z,98923.63
2022-10-12T16:09:17.570Z,98927.56
2022-10-12T16:14:19.422Z,98915.00
2022-10-12T16:19:21.221Z,98911.03
2022-10-12T16:24:23.792Z,98918.09
2022-10-12T16:29:25.611Z,98924.72
2022-10-12T16:34:30.381Z,98919.22
2022-10-12T16:39:32.433Z,98917.56
2022-10-12T16:44:34.290Z,98925.69
2022-10-12T16:49:36.122Z,98928.75
2022-10-12T16:54:38.031Z,98927.06
2022-10-12T16:59:39.826Z,98919.97
2022-10-12T17:04:41.967Z,98925.41
2022-10-12T17:09:43.878Z,98924.53
2022-10-12T17:14:46.177Z,98927.13
2022-10-12T17:19:48.067Z,98934.44
2022-10-12T17:24:50.100Z,98926.50
2022-10-12T17:29:51.995Z,98934.22
2022-10-12T17:34:53.838Z,98937.66
2022-10-12T17:39:55.722Z,98930.97
2022-10-12T17:44:57.551Z,98930.03
2022-10-12T17:49:59.368Z,98929.56
2022-10-12T17:55:01.312Z,98929.88
2022-10-12T18:00:04.583Z,98914.09
2022-10-12T18:05:13.435Z,98919.06
2022-10-12T18:10:15.551Z,98915.84
2022-10-12T18:15:17.519Z,98928.59
2022-10-12T18:20:19.361Z,98912.84
2022-10-12T18:25:21.464Z,98920.53
2022-10-12T18:30:23.914Z,98911.81
2022-10-12T18:35:27.613Z,98915.28
2022-10-12T18:40:29.418Z,98925.06
2022-10-12T18:45:31.655Z,98923.91
2022-10-12T18:50:36.072Z,98912.88
2022-10-12T18:55:41.092Z,98919.81
2022-10-12T19:00:43.707Z,98908.44
2022-10-12T19:05:46.644Z,98909.09
2022-10-12T19:10:48.454Z,98911.28
2022-10-12T19:15:50.292Z,98914.38
2022-10-12T19:20:52.253Z,98919.06
2022-10-12T19:25:57.146Z,98909.28
2022-10-12T19:30:59.481Z,98910.72
2022-10-12T19:36:06.163Z,98900.09
2022-10-12T19:41:09.333Z,98892.25
2022-10-12T19:46:12.825Z,98889.81
2022-10-12T19:51:14.916Z,98892.88
2022-10-12T19:56:20.898Z,98884.31
2022-10-12T20:01:26.082Z,98881.22
2022-10-12T20:06:30.279Z,98877.19
2022-10-12T20:11:32.388Z,98881.81
2022-10-12T20:16:35.403Z,98889.59
2022-10-12T20:21:37.616Z,98884.50
2022-10-12T20:26:40.026Z,98893.78
2022-10-12T20:31:43.667Z,98885.53
2022-10-12T20:36:46.376Z,98883.09
2022-10-12T20:41:48.419Z,98897.03
2022-10-12T20:46:50.693Z,98886.78
2022-10-12T20:51:52.555Z,98887.53
2022-10-12T20:56:54.474Z,98887.03
2022-10-12T21:01:56.258Z,98879.56
2022-10-12T21:06:58.247Z,98885.03
2022-10-12T21:12:00.203Z,98878.78
2022-10-12T21:17:01.948Z,98867.81
2022-10-12T21:22:03.932Z,98865.44
2022-10-12T21:27:05.741Z,98864.66
2022-10-12T21:32:07.623Z,98870.13
2022-10-12T21:37:09.448Z,98870.81
2022-10-12T21:42:11.238Z,98870.34
2022-10-12T21:47:17.300Z,98867.84
2022-10-12T21:52:20.172Z,98870.72
2022-10-12T21:57:22.256Z,98866.91
2022-10-12T22:02:23.992Z,98872.09
2022-10-12T22:07:25.841Z,98860.88
2022-10-12T22:12:30.128Z,98862.31
2022-10-12T22:17:31.957Z,98862.38
2022-10-12T22:22:33.763Z,98861.75
2022-10-12T22:27:35.615Z,98861.47
2022-10-12T22:32:37.433Z,98859.59
2022-10-12T22:37:39.262Z,98846.34
2022-10-12T22:42:41.056Z,98853.72
2022-10-12T22:47:42.980Z,98851.72
2022-10-12T22:52:44.766Z,98848.41
2022-10-12T22:57:46.563Z,98838.94
2022-10-12T23:02:48.463Z,98842.66
2022-10-12T23:07:50.466Z,98835.06
2022-10-12T23:12:52.495Z,98833.94
2022-10-12T23:17:54.354Z,98845.34
2022-10-12T23:22:56.225Z,98843.38
2022-10-12T23:27:58.065Z,98833.44
2022-10-12T23:32:59.872Z,98835.97
2022-10-12T23:38:02.030Z,98840.00
2022-10-12T23:43:03.821Z,98836.22
2022-10-12T23:48:05.805Z,98833.97
2022-10-12T23:53:09.470Z,98827.06
2022-10-12T23:58:11.294Z,98823.25
